createdAt,value
2023-12-15T00:01:36.145Z,5.55
2023-12-15T00:04:03.808Z,6.63
2023-12-15T00:06:31.479Z,7.35
2023-12-15T00:08:59.055Z,6.90
2023-12-15T00:11:26.659Z,7.18
2023-12-15T00:13:54.322Z,7.93
2023-12-15T00:16:21.988Z,6.47
2023-12-15T00:18:49.611Z,7.60
2023-12-15T00:21:17.269Z,7.05
2023-12-15T00:23:44.861Z,7.43
2023-12-15T00:26:12.470Z,7.03
2023-12-15T00:28:40.136Z,6.40
2023-12-15T00:31:07.783Z,7.97
2023-12-15T00:33:35.508Z,7.95
2023-12-15T00:36:03.135Z,6.47
2023-12-15T00:38:30.816Z,7.65
2023-12-15T00:40:58.576Z,23.38
2023-12-15T00:43:26.137Z,7.35
2023-12-15T00:45:53.746Z,7.10
2023-12-15T00:48:21.412Z,7.13
2023-12-15T00:50:49.173Z,7.35
2023-12-15T00:53:16.781Z,7.25
2023-12-15T00:55:44.362Z,7.45
2023-12-15T00:58:11.935Z,6.93
2023-12-15T01:00:39.520Z,8.00
2023-12-15T01:03:07.383Z,7.28
2023-12-15T01:05:35.021Z,5.32
2023-12-15T01:08:02.667Z,6.88
2023-12-15T01:10:30.597Z,5.95
2023-12-15T01:12:58.196Z,5.28
2023-12-15T01:15:25.739Z,5.72
2023-12-15T01:17:56.470Z,4.53
2023-12-15T01:20:25.136Z,5.10
2023-12-15T01:22:52.831Z,5.55
2023-12-15T01:25:20.440Z,4.93
2023-12-15T01:27:47.971Z,5.38
2023-12-15T01:30:15.849Z,4.78
2023-12-15T01:32:43.595Z,4.80
2023-12-15T01:35:11.309Z,4.00
2023-12-15T01:37:39.190Z,3.97
2023-12-15T01:40:07.613Z,5.18
2023-12-15T01:42:35.180Z,4.72
2023-12-15T01:45:02.714Z,4.18
2023-12-15T01:47:30.503Z,3.63
2023-12-15T01:49:58.309Z,21.75
2023-12-15T01:52:26.063Z,4.28
2023-12-15T01:54:53.636Z,4.10
2023-12-15T01:57:21.208Z,4.28
2023-12-15T01:59:52.851Z,4.45
2023-12-15T02:02:20.609Z,3.78
2023-12-15T02:04:48.600Z,4.32
2023-12-15T02:07:16.368Z,3.38
2023-12-15T02:09:43.999Z,4.10
2023-12-15T02:12:11.584Z,3.83
2023-12-15T02:14:39.153Z,5.25
2023-12-15T02:17:06.701Z,4.70
2023-12-15T02:19:34.364Z,4.75
2023-12-15T02:22:01.919Z,4.90
2023-12-15T02:24:29.517Z,4.70
2023-12-15T02:26:57.454Z,4.32
2023-12-15T02:29:28.313Z,4.28
2023-12-15T02:31:56.533Z,3.80
2023-12-15T02:34:26.599Z,4.25
2023-12-15T02:36:54.466Z,4.75
2023-12-15T02:39:22.060Z,4.55
2023-12-15T02:41:49.750Z,5.50
2023-12-15T02:44:17.472Z,3.88
2023-12-15T02:46:45.125Z,4.78
2023-12-15T02:49:12.764Z,4.82
2023-12-15T02:51:40.447Z,4.80
2023-12-15T02:54:08.004Z,7.35
2023-12-15T02:56:35.554Z,4.25
2023-12-15T02:59:04.651Z,4.53
2023-12-15T03:01:32.292Z,4.22
2023-12-15T03:03:59.888Z,4.10
2023-12-15T03:06:27.503Z,4.35
2023-12-15T03:08:55.238Z,3.72
2023-12-15T03:11:24.138Z,4.72
2023-12-15T03:13:51.755Z,3.85
2023-12-15T03:16:19.474Z,3.03
2023-12-15T03:18:47.040Z,3.30
2023-12-15T03:21:14.649Z,4.65
2023-12-15T03:23:42.207Z,3.33
2023-12-15T03:26:09.825Z,3.70
2023-12-15T03:28:37.436Z,3.55
2023-12-15T03:31:05.491Z,3.67
2023-12-15T03:33:37.018Z,4.43
2023-12-15T03:36:05.308Z,3.33
2023-12-15T03:38:35.157Z,4.53
2023-12-15T03:41:02.793Z,4.15
2023-12-15T03:43:30.418Z,3.95
2023-12-15T03:45:57.944Z,3.45
2023-12-15T03:48:25.543Z,3.30
2023-12-15T03:50:53.156Z,3.95
2023-12-15T03:53:20.872Z,3.85
2023-12-15T03:55:48.492Z,3.63
2023-12-15T03:58:16.085Z,3.83
2023-12-15T04:00:43.735Z,3.45
2023-12-15T04:03:11.335Z,3.15
2023-12-15T04:05:39.152Z,3.17
2023-12-15T04:08:06.867Z,3.20
2023-12-15T04:10:34.420Z,3.47
2023-12-15T04:13:01.951Z,2.90
2023-12-15T04:15:29.518Z,3.33
2023-12-15T04:17:57.281Z,3.15
2023-12-15T04:20:24.986Z,2.85
2023-12-15T04:22:52.689Z,3.13
2023-12-15T04:25:20.364Z,2.38
2023-12-15T04:27:48.736Z,2.80
2023-12-15T04:30:16.415Z,2.78
2023-12-15T04:32:44.241Z,2.78
2023-12-15T04:35:11.851Z,2.83
2023-12-15T04:37:39.477Z,2.00
2023-12-15T04:40:07.422Z,2.53
2023-12-15T04:42:34.981Z,2.17
2023-12-15T04:45:02.538Z,2.40
2023-12-15T04:47:30.291Z,3.17
2023-12-15T04:49:58.070Z,2.35
2023-12-15T04:52:25.640Z,3.25
2023-12-15T04:54:53.208Z,4.95
2023-12-15T04:57:20.790Z,3.40
2023-12-15T04:59:48.376Z,5.95
2023-12-15T05:02:16.010Z,5.53
2023-12-15T05:04:43.644Z,5.00
2023-12-15T05:07:11.156Z,5.95
2023-12-15T05:09:38.813Z,5.82
2023-12-15T05:12:07.647Z,7.00
2023-12-15T05:14:35.306Z,5.68
2023-12-15T05:17:03.987Z,4.57
2023-12-15T05:19:31.707Z,4.97
2023-12-15T05:21:59.500Z,3.70
2023-12-15T05:24:27.148Z,5.32
2023-12-15T05:26:54.777Z,3.28
2023-12-15T05:29:23.218Z,3.72
2023-12-15T05:31:50.803Z,5.45
2023-12-15T05:34:18.451Z,3.95
2023-12-15T05:36:46.056Z,4.70
2023-12-15T05:39:16.146Z,5.72
2023-12-15T05:41:45.394Z,5.18
2023-12-15T05:44:13.485Z,4.47
2023-12-15T05:46:44.267Z,4.10
2023-12-15T05:49:15.204Z,4.10
2023-12-15T05:51:48.542Z,3.55
2023-12-15T05:54:16.325Z,4.28
2023-12-15T05:56:44.133Z,4.45
2023-12-15T05:59:11.711Z,4.57
2023-12-15T06:01:39.344Z,4.60
2023-12-15T06:04:07.001Z,5.95
2023-12-15T06:06:34.651Z,4.47
2023-12-15T06:09:02.249Z,3.80
2023-12-15T06:11:30.116Z,4.85
2023-12-15T06:13:58.343Z,8.52
2023-12-15T06:16:25.972Z,7.55
2023-12-15T06:18:53.622Z,25.77
2023-12-15T06:21:24.527Z,6.72
2023-12-15T06:23:52.318Z,8.35
2023-12-15T06:26:23.576Z,11.35
2023-12-15T06:28:51.585Z,10.82
2023-12-15T06:31:19.181Z,5.95
2023-12-15T06:33:47.033Z,6.75
2023-12-15T06:36:14.817Z,10.15
2023-12-15T06:38:46.170Z,7.13
2023-12-15T06:41:14.322Z,6.15
2023-12-15T06:43:46.005Z,6.47
2023-12-15T06:46:14.226Z,6.72
2023-12-15T06:48:42.027Z,8.13
2023-12-15T06:51:09.730Z,7.22
2023-12-15T06:53:38.280Z,6.75
2023-12-15T06:56:06.239Z,8.10
2023-12-15T06:58:33.989Z,6.80
2023-12-15T07:01:01.665Z,9.15
2023-12-15T07:03:30.274Z,7.80
2023-12-15T07:05:58.149Z,8.98
2023-12-15T07:08:25.913Z,8.70
2023-12-15T07:10:53.583Z,8.75
2023-12-15T07:13:21.178Z,7.25
2023-12-15T07:15:48.892Z,8.35
2023-12-15T07:18:16.766Z,24.40
2023-12-15T07:20:44.551Z,10.73
2023-12-15T07:23:12.328Z,9.73
2023-12-15T07:25:40.026Z,8.73
2023-12-15T07:28:07.747Z,10.70
2023-12-15T07:30:35.482Z,9.00
2023-12-15T07:33:03.493Z,9.75
2023-12-15T07:35:33.234Z,10.57
2023-12-15T07:38:01.932Z,9.55
2023-12-15T07:40:30.160Z,10.95
2023-12-15T07:42:57.929Z,10.52
2023-12-15T07:45:26.278Z,9.50
2023-12-15T07:47:55.380Z,11.77
2023-12-15T07:50:23.158Z,11.45
2023-12-15T07:52:51.736Z,11.25
2023-12-15T07:55:19.692Z,10.18
2023-12-15T07:57:47.445Z,16.27
2023-12-15T08:00:15.551Z,11.98
2023-12-15T08:02:45.485Z,9.93
2023-12-15T08:05:13.341Z,10.50
2023-12-15T08:07:41.622Z,12.13
2023-12-15T08:10:09.938Z,12.55
2023-12-15T08:12:37.625Z,10.02
2023-12-15T08:15:05.609Z,10.27
2023-12-15T08:17:35.483Z,10.98
2023-12-15T08:20:03.890Z,12.68
2023-12-15T08:22:31.687Z,11.90
2023-12-15T08:24:59.318Z,11.65
2023-12-15T08:27:26.959Z,11.02
2023-12-15T08:29:58.469Z,10.40
2023-12-15T08:32:26.376Z,10.83
2023-12-15T08:34:54.124Z,11.20
2023-12-15T08:37:21.759Z,12.25
2023-12-15T08:39:49.353Z,10.65
2023-12-15T08:42:17.037Z,13.23
2023-12-15T08:44:45.590Z,11.93
2023-12-15T08:47:13.463Z,13.48
2023-12-15T08:49:41.159Z,13.30
2023-12-15T08:52:08.822Z,12.18
2023-12-15T08:54:36.490Z,11.15
2023-12-15T08:57:04.302Z,12.35
2023-12-15T08:59:32.049Z,12.57
2023-12-15T09:01:59.980Z,13.00
2023-12-15T09:04:27.980Z,12.05
2023-12-15T09:06:55.771Z,11.77
2023-12-15T09:09:25.558Z,12.15
2023-12-15T09:11:53.261Z,11.13
2023-12-15T09:14:23.069Z,13.85
2023-12-15T09:16:50.760Z,11.98
2023-12-15T09:19:18.518Z,11.00
2023-12-15T09:21:46.235Z,12.27
2023-12-15T09:24:16.045Z,13.15
2023-12-15T09:26:46.561Z,12.32
2023-12-15T09:29:14.603Z,12.50
2023-12-15T09:31:42.717Z,13.82
2023-12-15T09:34:10.633Z,12.65
2023-12-15T09:36:38.267Z,12.00
2023-12-15T09:39:06.019Z,13.27
2023-12-15T09:41:34.036Z,13.98
2023-12-15T09:44:02.576Z,12.80
2023-12-15T09:46:30.562Z,14.65
2023-12-15T09:48:58.525Z,14.30
2023-12-15T09:51:27.802Z,13.38
2023-12-15T09:53:55.681Z,13.35
2023-12-15T09:56:24.000Z,15.13
2023-12-15T09:58:51.739Z,13.82
2023-12-15T10:01:20.418Z,20.38
2023-12-15T10:03:48.239Z,17.60
2023-12-15T10:06:16.075Z,12.32
2023-12-15T10:08:54.377Z,12.73
2023-12-15T10:11:31.456Z,13.40
2023-12-15T10:13:59.215Z,13.75
2023-12-15T10:16:29.100Z,14.38
2023-12-15T10:18:56.883Z,13.63
2023-12-15T10:21:26.480Z,13.25
2023-12-15T10:23:55.506Z,13.68
2023-12-15T10:26:23.793Z,13.68
2023-12-15T10:28:55.897Z,14.60
2023-12-15T10:31:27.158Z,15.37
2023-12-15T10:33:54.908Z,15.00
2023-12-15T10:36:22.920Z,13.13
2023-12-15T10:38:50.662Z,15.07
2023-12-15T10:41:18.995Z,14.55
2023-12-15T10:43:48.946Z,15.13
2023-12-15T10:46:16.839Z,16.67
2023-12-15T10:48:45.199Z,14.05
2023-12-15T10:51:15.339Z,13.52
2023-12-15T10:53:43.272Z,14.85
2023-12-15T10:56:11.322Z,14.88
2023-12-15T10:58:39.206Z,13.63
2023-12-15T11:01:10.768Z,14.05
2023-12-15T11:03:40.376Z,23.70
2023-12-15T11:06:08.320Z,14.20
2023-12-15T11:08:36.211Z,13.82
2023-12-15T11:11:10.310Z,11.98
2023-12-15T11:14:02.689Z,12.30
2023-12-15T11:16:31.314Z,11.38
2023-12-15T11:18:59.641Z,13.40
2023-12-15T11:21:27.869Z,13.75
2023-12-15T11:23:58.398Z,11.23
2023-12-15T11:26:30.901Z,11.80
2023-12-15T11:29:03.994Z,10.68
2023-12-15T11:31:35.403Z,13.30
2023-12-15T11:34:04.764Z,11.77
2023-12-15T11:36:39.876Z,10.90
2023-12-15T11:39:13.730Z,11.65
2023-12-15T11:41:42.920Z,11.18
2023-12-15T11:44:10.910Z,13.18
2023-12-15T11:46:38.512Z,10.68
2023-12-15T11:49:06.305Z,11.13
2023-12-15T11:51:35.498Z,12.55
2023-12-15T11:54:05.069Z,10.77
2023-12-15T11:56:32.972Z,10.65
2023-12-15T11:59:02.389Z,9.57
2023-12-15T12:01:37.118Z,9.50
2023-12-15T12:04:05.151Z,10.25
2023-12-15T12:06:34.029Z,9.27
2023-12-15T12:09:01.654Z,9.75
2023-12-15T12:11:29.380Z,9.35
2023-12-15T12:14:02.464Z,9.02
2023-12-15T12:16:30.250Z,9.90
2023-12-15T12:18:58.074Z,7.78
2023-12-15T12:21:29.190Z,10.80
2023-12-15T12:23:57.453Z,9.00
2023-12-15T12:26:27.483Z,9.73
2023-12-15T12:28:55.468Z,10.30
2023-12-15T12:31:23.755Z,7.97
2023-12-15T12:33:52.260Z,8.63
2023-12-15T12:36:20.007Z,8.90
2023-12-15T12:38:48.661Z,7.03
2023-12-15T12:41:16.905Z,8.52
2023-12-15T12:43:44.709Z,7.15
2023-12-15T12:46:15.781Z,8.07
2023-12-15T12:48:48.839Z,7.50
2023-12-15T12:51:17.048Z,7.32
2023-12-15T12:53:44.757Z,6.78
2023-12-15T12:56:14.026Z,6.38
2023-12-15T12:58:41.728Z,6.90
2023-12-15T13:01:10.569Z,5.75
2023-12-15T13:03:40.602Z,5.63
2023-12-15T13:06:10.659Z,7.20
2023-12-15T13:08:39.061Z,6.30
2023-12-15T13:11:06.804Z,5.55
2023-12-15T13:13:34.645Z,4.90
2023-12-15T13:16:02.234Z,5.88
2023-12-15T13:18:29.978Z,6.25
2023-12-15T13:20:58.012Z,4.47
2023-12-15T13:23:25.716Z,4.82
2023-12-15T13:25:53.913Z,6.63
2023-12-15T13:28:21.568Z,5.85
2023-12-15T13:30:49.291Z,6.35
2023-12-15T13:33:17.880Z,5.45
2023-12-15T13:35:45.788Z,5.13
2023-12-15T13:38:13.624Z,3.85
2023-12-15T13:40:41.323Z,3.88
2023-12-15T13:43:08.977Z,3.72
2023-12-15T13:45:39.850Z,3.90
2023-12-15T13:50:37.177Z,4.95
2023-12-15T13:53:04.909Z,6.07
2023-12-15T13:55:32.484Z,5.80
2023-12-15T13:58:00.187Z,9.63
2023-12-15T14:00:27.785Z,7.40
2023-12-15T14:02:55.497Z,6.68
2023-12-15T14:05:23.218Z,5.68
2023-12-15T14:07:50.917Z,6.32
2023-12-15T14:10:18.541Z,5.18
2023-12-15T14:12:48.379Z,6.07
2023-12-15T14:15:16.066Z,5.97
2023-12-15T14:17:44.506Z,9.02
2023-12-15T14:20:13.274Z,6.57
2023-12-15T14:22:41.393Z,9.13
2023-12-15T14:25:10.771Z,7.03
2023-12-15T14:27:39.495Z,7.20
2023-12-15T14:30:08.701Z,8.68
2023-12-15T14:32:37.016Z,9.88
2023-12-15T14:35:05.760Z,9.73
2023-12-15T14:37:33.468Z,8.95
2023-12-15T14:40:01.295Z,8.32
2023-12-15T14:42:28.922Z,9.95
2023-12-15T14:44:56.560Z,11.02
2023-12-15T14:47:24.216Z,10.52
2023-12-15T14:49:52.299Z,15.27
2023-12-15T14:52:19.938Z,10.65
2023-12-15T14:54:47.724Z,10.48
2023-12-15T14:57:15.482Z,13.18
2023-12-15T14:59:43.309Z,9.75
2023-12-15T15:02:12.027Z,10.60
2023-12-15T15:04:39.775Z,9.77
2023-12-15T15:07:07.412Z,11.18
2023-12-15T15:09:35.066Z,10.30
2023-12-15T15:12:03.085Z,10.27
2023-12-15T15:14:31.333Z,11.88
2023-12-15T15:16:58.998Z,17.33
2023-12-15T15:19:28.568Z,16.75
2023-12-15T15:21:56.401Z,11.32
2023-12-15T15:24:24.061Z,10.70
2023-12-15T15:26:51.735Z,11.63
2023-12-15T15:29:19.517Z,10.15
2023-12-15T15:31:47.446Z,12.13
2023-12-15T15:34:18.342Z,8.40
2023-12-15T15:36:46.117Z,11.02
2023-12-15T15:39:14.211Z,11.00
2023-12-15T15:41:41.831Z,11.70
2023-12-15T15:44:14.502Z,10.30
2023-12-15T15:46:47.116Z,10.82
2023-12-15T15:49:14.869Z,11.27
2023-12-15T15:51:42.682Z,10.98
2023-12-15T15:54:10.865Z,10.82
2023-12-15T15:56:38.529Z,13.60
2023-12-15T15:59:07.377Z,10.45
2023-12-15T16:01:40.695Z,12.35
2023-12-15T16:04:11.905Z,11.55
2023-12-15T16:06:39.798Z,11.07
2023-12-15T16:09:08.609Z,12.60
2023-12-15T16:11:36.576Z,12.38
2023-12-15T16:14:10.359Z,13.13
2023-12-15T16:16:39.248Z,12.07
2023-12-15T16:19:07.212Z,12.73
2023-12-15T16:21:37.853Z,11.52
2023-12-15T16:24:06.807Z,12.85
2023-12-15T16:26:34.555Z,13.13
2023-12-15T16:29:02.212Z,11.25
2023-12-15T16:31:30.345Z,12.02
2023-12-15T16:33:58.209Z,12.38
2023-12-15T16:36:26.031Z,11.13
2023-12-15T16:38:53.700Z,11.25
2023-12-15T16:41:28.394Z,12.55
2023-12-15T16:43:56.241Z,10.68
2023-12-15T16:46:23.924Z,12.82
2023-12-15T16:48:55.491Z,12.13
2023-12-15T16:51:27.922Z,10.88
2023-12-15T16:53:55.894Z,11.43
2023-12-15T16:56:23.611Z,13.07
2023-12-15T16:58:51.359Z,12.70
2023-12-15T17:01:19.239Z,12.75
2023-12-15T17:03:47.344Z,12.73
2023-12-15T17:06:15.299Z,13.52
2023-12-15T17:08:43.863Z,12.98
2023-12-15T17:11:12.037Z,13.02
2023-12-15T17:13:39.711Z,12.88
2023-12-15T17:16:07.861Z,13.13
2023-12-15T17:18:35.606Z,12.07
2023-12-15T17:21:04.653Z,12.63
2023-12-15T17:23:32.939Z,12.45
2023-12-15T17:26:00.647Z,13.35
2023-12-15T17:28:28.303Z,12.88
2023-12-15T17:30:56.096Z,13.45
2023-12-15T17:33:23.735Z,11.57
2023-12-15T17:35:51.582Z,17.73
2023-12-15T17:38:19.257Z,32.22
2023-12-15T17:40:46.884Z,14.05
2023-12-15T17:43:14.657Z,13.25
2023-12-15T17:45:42.361Z,39.45
2023-12-15T17:48:11.283Z,26.75
2023-12-15T17:50:39.217Z,29.20
2023-12-15T17:53:06.964Z,26.80
2023-12-15T17:55:35.390Z,15.40
2023-12-15T17:58:03.097Z,16.70
2023-12-15T18:00:30.809Z,17.40
2023-12-15T18:02:58.443Z,16.00
2023-12-15T18:05:26.247Z,17.83
2023-12-15T18:07:56.151Z,14.43
2023-12-15T18:10:23.917Z,18.83
2023-12-15T18:12:51.597Z,16.33
2023-12-15T18:15:19.512Z,15.63
2023-12-15T18:17:47.264Z,14.60
2023-12-15T18:20:15.072Z,15.82
2023-12-15T18:22:43.339Z,15.93
2023-12-15T18:25:11.711Z,16.65
2023-12-15T18:27:39.616Z,15.80
2023-12-15T18:30:07.948Z,14.38
2023-12-15T18:32:35.610Z,14.70
2023-12-15T18:35:03.256Z,16.48
2023-12-15T18:37:30.858Z,14.55
2023-12-15T18:39:58.623Z,13.43
2023-12-15T18:42:26.234Z,13.00
2023-12-15T18:44:53.906Z,12.63
2023-12-15T18:47:22.872Z,13.05
2023-12-15T18:49:50.592Z,18.27
2023-12-15T18:52:21.504Z,14.00
2023-12-15T18:54:49.406Z,13.85
2023-12-15T18:57:17.118Z,11.23
2023-12-15T18:59:44.971Z,11.90
2023-12-15T19:02:13.164Z,15.18
2023-12-15T19:04:42.539Z,73.53
2023-12-15T19:07:10.449Z,13.70
2023-12-15T19:09:41.401Z,42.38
2023-12-15T19:12:09.155Z,33.75
2023-12-15T19:14:36.858Z,55.80
2023-12-15T19:17:04.742Z,44.15
2023-12-15T19:19:32.427Z,18.02
2023-12-15T19:22:00.237Z,52.25
2023-12-15T19:24:27.829Z,18.15
2023-12-15T19:26:55.467Z,13.43
2023-12-15T19:29:23.048Z,12.45
2023-12-15T19:31:50.676Z,14.57
2023-12-15T19:34:18.707Z,15.13
2023-12-15T19:36:46.444Z,12.40
2023-12-15T19:39:14.160Z,13.65
2023-12-15T19:41:44.358Z,13.10
2023-12-15T19:44:12.031Z,12.68
2023-12-15T19:46:39.798Z,11.38
2023-12-15T19:49:09.261Z,10.27
2023-12-15T19:51:38.242Z,13.32
2023-12-15T19:54:13.172Z,13.05
2023-12-15T19:56:47.936Z,14.20
2023-12-15T19:59:18.752Z,17.30
2023-12-15T20:01:48.006Z,13.57
2023-12-15T20:04:16.209Z,14.45
2023-12-15T20:06:44.073Z,15.43
2023-12-15T20:09:11.882Z,13.18
2023-12-15T20:11:39.541Z,14.02
2023-12-15T20:14:08.116Z,15.20
2023-12-15T20:16:36.223Z,15.68
2023-12-15T20:19:04.102Z,15.20
2023-12-15T20:21:33.412Z,16.00
2023-12-15T20:24:01.062Z,16.20
2023-12-15T20:26:28.722Z,16.15
2023-12-15T20:28:57.901Z,14.40
2023-12-15T20:31:25.639Z,13.48
2023-12-15T20:33:53.430Z,11.63
2023-12-15T20:36:21.675Z,14.07
2023-12-15T20:38:49.490Z,13.95
2023-12-15T20:41:20.835Z,14.88
2023-12-15T20:43:48.922Z,16.60
2023-12-15T20:46:19.786Z,13.25
2023-12-15T20:48:47.818Z,15.98
2023-12-15T20:51:24.628Z,13.88
2023-12-15T20:53:52.429Z,15.80
2023-12-15T20:56:26.728Z,12.38
2023-12-15T20:58:54.418Z,13.20
2023-12-15T21:01:22.254Z,13.75
2023-12-15T21:03:50.114Z,11.35
2023-12-15T21:06:24.168Z,9.57
2023-12-15T21:08:55.685Z,12.40
2023-12-15T21:11:23.530Z,69.70
2023-12-15T21:13:56.649Z,43.03
2023-12-15T21:16:26.084Z,12.35
2023-12-15T21:18:54.452Z,11.90
2023-12-15T21:21:28.894Z,10.15
2023-12-15T21:23:56.893Z,10.07
2023-12-15T21:26:24.750Z,10.05
2023-12-15T21:28:54.596Z,9.32
2023-12-15T21:31:22.501Z,10.35
2023-12-15T21:33:50.526Z,9.48
2023-12-15T21:36:18.534Z,9.65
2023-12-15T21:38:46.870Z,11.70
2023-12-15T21:41:19.036Z,10.32
2023-12-15T21:43:46.846Z,12.10
2023-12-15T21:46:17.362Z,10.45
2023-12-15T21:48:46.282Z,10.98
2023-12-15T21:51:14.070Z,11.10
2023-12-15T21:53:41.686Z,9.45
2023-12-15T21:56:09.511Z,10.77
2023-12-15T21:58:39.455Z,13.25
2023-12-15T22:01:07.634Z,9.38
2023-12-15T22:03:35.311Z,12.30
2023-12-15T22:06:02.992Z,11.25
2023-12-15T22:08:30.733Z,11.35
2023-12-15T22:10:58.329Z,8.75
2023-12-15T22:13:25.996Z,10.93
2023-12-15T22:15:53.672Z,11.07
2023-12-15T22:18:22.246Z,10.95
2023-12-15T22:20:49.946Z,9.85
2023-12-15T22:23:17.543Z,11.18
2023-12-15T22:25:45.296Z,11.25
2023-12-15T22:28:12.930Z,11.45
2023-12-15T22:30:43.832Z,10.55
2023-12-15T22:33:11.813Z,9.93
2023-12-15T22:35:40.431Z,9.60
2023-12-15T22:38:08.993Z,11.18
2023-12-15T22:40:36.799Z,11.18
2023-12-15T22:43:05.773Z,11.50
2023-12-15T22:45:33.530Z,10.90
2023-12-15T22:48:01.424Z,12.02
2023-12-15T22:50:29.352Z,10.73
2023-12-15T22:52:57.030Z,12.65
2023-12-15T22:55:24.987Z,13.05
2023-12-15T22:57:53.542Z,21.98
2023-12-15T23:00:23.072Z,26.75
2023-12-15T23:02:50.735Z,23.48
2023-12-15T23:05:19.049Z,18.45
2023-12-15T23:07:47.067Z,16.60
2023-12-15T23:10:14.843Z,13.02
2023-12-15T23:12:42.560Z,12.98
2023-12-15T23:15:15.221Z,12.10
2023-12-15T23:17:48.441Z,12.20
2023-12-15T23:20:17.662Z,10.77
2023-12-15T23:22:46.564Z,16.20
2023-12-15T23:25:14.325Z,15.30
2023-12-15T23:27:42.629Z,12.98
2023-12-15T23:30:11.041Z,14.73
2023-12-15T23:32:38.754Z,12.57
2023-12-15T23:35:06.616Z,12.77
2023-12-15T23:37:34.306Z,12.00
2023-12-15T23:40:02.133Z,12.27
2023-12-15T23:42:30.199Z,11.93
2023-12-15T23:44:57.845Z,11.77
2023-12-15T23:47:25.551Z,12.20
2023-12-15T23:49:54.563Z,10.85
2023-12-15T23:52:25.205Z,12.88
2023-12-15T23:54:52.901Z,11.85
2023-12-15T23:57:20.536Z,8.48
2023-12-15T23:59:48.186Z,13.02
